createdAt,value
2023-05-24T00:00:01.620Z,8.9
2023-05-24T00:03:01.388Z,8.9
2023-05-24T00:06:01.255Z,8.9
2023-05-24T00:09:01.273Z,8.9
2023-05-24T00:12:01.202Z,8.9
2023-05-24T00:15:01.247Z,8.9
2023-05-24T00:18:01.442Z,8.9
2023-05-24T00:21:01.236Z,8.9
2023-05-24T00:24:01.231Z,8.9
2023-05-24T00:27:01.337Z,8.9
2023-05-24T00:30:01.177Z,8.9
2023-05-24T00:33:01.385Z,8.9
2023-05-24T00:36:01.260Z,8.9
2023-05-24T00:39:01.250Z,8.9
2023-05-24T00:42:01.258Z,8.9
2023-05-24T00:45:01.252Z,8.9
2023-05-24T00:48:01.378Z,8.9
2023-05-24T00:51:01.173Z,8.9
2023-05-24T00:54:01.293Z,8.4
2023-05-24T00:57:01.223Z,8.4
2023-05-24T01:00:01.210Z,8.4
2023-05-24T01:03:01.547Z,8.4
2023-05-24T01:06:01.167Z,8.4
2023-05-24T01:09:01.266Z,8.4
2023-05-24T01:12:01.252Z,8.4
2023-05-24T01:15:01.212Z,8.4
2023-05-24T01:18:01.254Z,8.4
2023-05-24T01:21:01.294Z,8.4
2023-05-24T01:24:01.238Z,8.4
2023-05-24T01:27:01.153Z,8.4
2023-05-24T01:30:01.230Z,8.4
2023-05-24T01:33:01.287Z,8.1
2023-05-24T01:36:01.248Z,8.1
2023-05-24T01:39:01.234Z,8.1
2023-05-24T01:42:01.330Z,8.1
2023-05-24T01:45:01.216Z,8.1
2023-05-24T01:48:01.306Z,8.1
2023-05-24T01:51:01.396Z,8.1
2023-05-24T01:54:01.165Z,8.1
2023-05-24T01:57:01.244Z,8.1
2023-05-24T02:00:01.293Z,8.1
2023-05-24T02:03:01.318Z,8.1
2023-05-24T02:06:01.293Z,8.1
2023-05-24T02:09:01.304Z,8.1
2023-05-24T02:12:01.355Z,8.1
2023-05-24T02:15:01.248Z,8.1
2023-05-24T02:18:01.292Z,8.2
2023-05-24T02:21:01.179Z,8.2
2023-05-24T02:24:01.240Z,8.2
2023-05-24T02:27:01.263Z,8.2
2023-05-24T02:30:01.448Z,8.2
2023-05-24T02:33:01.321Z,8.2
2023-05-24T02:36:01.246Z,8.2
2023-05-24T02:39:01.185Z,8.2
2023-05-24T02:42:01.260Z,8.2
2023-05-24T02:45:01.257Z,8.2
2023-05-24T02:48:01.375Z,8.2
2023-05-24T02:51:01.193Z,8.2
2023-05-24T02:54:01.182Z,8.2
2023-05-24T02:57:01.267Z,8.2
2023-05-24T03:00:01.312Z,8.2
2023-05-24T03:03:01.418Z,8.2
2023-05-24T03:06:01.252Z,8.2
2023-05-24T03:09:01.275Z,8.2
2023-05-24T03:12:01.223Z,8.2
2023-05-24T03:15:01.362Z,8.2
2023-05-24T03:18:01.401Z,8.2
2023-05-24T03:21:01.309Z,8.2
2023-05-24T03:24:01.314Z,8.2
2023-05-24T03:27:01.303Z,8.2
2023-05-24T03:30:01.336Z,8.2
2023-05-24T03:33:01.509Z,8.2
2023-05-24T03:36:01.286Z,8.2
2023-05-24T03:39:01.320Z,8.2
2023-05-24T03:42:01.301Z,8.2
2023-05-24T03:45:01.354Z,8.2
2023-05-24T03:48:01.362Z,8.2
2023-05-24T03:51:01.289Z,8.2
2023-05-24T03:54:01.295Z,8.2
2023-05-24T03:57:01.318Z,8.2
2023-05-24T04:00:01.335Z,8.2
2023-05-24T04:03:01.756Z,8.2
2023-05-24T04:06:01.362Z,8.3
2023-05-24T04:09:01.361Z,8.3
2023-05-24T04:12:01.396Z,8.3
2023-05-24T04:15:01.451Z,8.3
2023-05-24T04:18:01.597Z,8.3
2023-05-24T04:21:01.344Z,8.3
2023-05-24T04:24:01.401Z,8.3
2023-05-24T04:27:01.332Z,8.3
2023-05-24T04:30:01.356Z,8.3
2023-05-24T04:33:01.482Z,8.3
2023-05-24T04:36:01.350Z,8.3
2023-05-24T04:39:01.333Z,8.3
2023-05-24T04:42:01.358Z,8.3
2023-05-24T04:45:01.778Z,8.3
2023-05-24T04:48:01.360Z,8.3
2023-05-24T04:51:01.368Z,8.3
2023-05-24T04:54:01.352Z,8.3
2023-05-24T04:57:01.382Z,8.3
2023-05-24T05:00:01.618Z,8.6
2023-05-24T05:03:01.426Z,8.6
2023-05-24T05:06:01.379Z,8.6
2023-05-24T05:09:01.288Z,8.6
2023-05-24T05:12:01.462Z,8.6
2023-05-24T05:15:01.365Z,8.6
2023-05-24T05:18:01.308Z,9.1
2023-05-24T05:21:01.577Z,9.1
2023-05-24T05:24:01.359Z,9.1
2023-05-24T05:27:01.314Z,9.1
2023-05-24T05:30:02.015Z,9.1
2023-05-24T05:33:01.449Z,9.7
2023-05-24T05:36:01.278Z,9.7
2023-05-24T05:39:01.518Z,9.7
2023-05-24T05:42:01.379Z,9.7
2023-05-24T05:45:01.323Z,9.7
2023-05-24T05:48:01.438Z,9.7
2023-05-24T05:51:01.373Z,9.7
2023-05-24T05:54:01.315Z,9.7
2023-05-24T05:57:01.940Z,10.1
2023-05-24T06:00:01.519Z,10.1
2023-05-24T06:03:01.393Z,10.1
2023-05-24T06:06:01.335Z,10.2
2023-05-24T06:09:01.356Z,10.2
2023-05-24T06:12:01.311Z,10.2
2023-05-24T06:15:01.448Z,10.2
2023-05-24T06:18:01.367Z,10.2
2023-05-24T06:21:01.280Z,10.2
2023-05-24T06:24:01.338Z,10.2
2023-05-24T06:27:04.666Z,10.2
2023-05-24T06:30:01.740Z,10.2
2023-05-24T06:33:01.361Z,10.1
2023-05-24T06:36:01.467Z,10.1
2023-05-24T06:39:01.244Z,10.1
2023-05-24T06:42:01.370Z,10.1
2023-05-24T06:45:01.406Z,10.1
2023-05-24T06:48:01.407Z,10.1
2023-05-24T06:51:01.482Z,10.1
2023-05-24T06:54:01.306Z,10.1
2023-05-24T06:57:01.231Z,10.1
2023-05-24T07:00:01.729Z,10.1
2023-05-24T07:03:01.352Z,10.1
2023-05-24T07:06:01.329Z,10.1
2023-05-24T07:09:01.513Z,10.1
2023-05-24T07:12:01.608Z,10.7
2023-05-24T07:15:01.357Z,10.7
2023-05-24T07:18:01.420Z,10.7
2023-05-24T07:21:01.527Z,10.7
2023-05-24T07:24:01.331Z,10.7
2023-05-24T07:27:01.313Z,11.2
2023-05-24T07:30:01.342Z,11.2
2023-05-24T07:33:02.219Z,11.2
2023-05-24T07:36:01.301Z,11.2
2023-05-24T07:39:01.322Z,11.2
2023-05-24T07:42:01.251Z,11.7
2023-05-24T07:45:01.490Z,11.7
2023-05-24T07:48:01.416Z,11.7
2023-05-24T07:51:01.259Z,11.7
2023-05-24T07:54:01.313Z,12
2023-05-24T07:57:01.359Z,12
2023-05-24T08:00:01.332Z,12
2023-05-24T08:03:01.546Z,12
2023-05-24T08:06:01.701Z,12
2023-05-24T08:09:01.659Z,12
2023-05-24T08:12:01.349Z,12
2023-05-24T08:15:01.208Z,12
2023-05-24T08:18:01.391Z,12
2023-05-24T08:21:01.426Z,12
2023-05-24T08:24:01.334Z,12
2023-05-24T08:27:01.322Z,12
2023-05-24T08:30:01.451Z,12
2023-05-24T08:33:01.489Z,12
2023-05-24T08:36:01.371Z,12.4
2023-05-24T08:39:01.458Z,12.4
2023-05-24T08:42:10.289Z,12.4
2023-05-24T08:45:01.425Z,12.4
2023-05-24T08:48:01.455Z,12.4
2023-05-24T08:51:01.330Z,12.4
2023-05-24T08:54:01.373Z,12.9
2023-05-24T08:57:01.468Z,12.9
2023-05-24T09:00:01.510Z,12.9
2023-05-24T09:03:01.643Z,12.9
2023-05-24T09:06:01.423Z,12.9
2023-05-24T09:09:01.765Z,12.9
2023-05-24T09:12:01.445Z,12.9
2023-05-24T09:15:01.271Z,12.9
2023-05-24T09:18:01.406Z,12.9
2023-05-24T09:21:01.442Z,12.9
2023-05-24T09:24:01.429Z,12.9
2023-05-24T09:27:01.368Z,12.9
2023-05-24T09:30:01.537Z,12.9
2023-05-24T09:33:01.515Z,12.9
2023-05-24T09:36:01.474Z,12.9
2023-05-24T09:39:01.419Z,12.9
2023-05-24T09:42:01.286Z,12.9
2023-05-24T09:45:01.316Z,12.9
2023-05-24T09:48:01.479Z,12.9
2023-05-24T09:51:01.337Z,12.9
2023-05-24T09:54:01.450Z,12.9
2023-05-24T09:57:04.843Z,12.9
2023-05-24T10:00:01.932Z,12.9
2023-05-24T10:03:01.429Z,12.9
2023-05-24T10:06:01.353Z,12.9
2023-05-24T10:09:01.413Z,12.9
2023-05-24T10:12:01.322Z,12.9
2023-05-24T10:15:01.498Z,12.9
2023-05-24T10:18:01.579Z,12.9
2023-05-24T10:21:01.629Z,12.9
2023-05-24T10:24:01.408Z,12.9
2023-05-24T10:27:01.346Z,12.9
2023-05-24T10:30:01.513Z,12.9
2023-05-24T10:33:01.435Z,12.9
2023-05-24T10:36:01.327Z,13.1
2023-05-24T10:39:01.344Z,13.1
2023-05-24T10:42:01.391Z,13.1
2023-05-24T10:45:01.480Z,13.1
2023-05-24T10:48:01.461Z,13.1
2023-05-24T10:51:01.378Z,13.1
2023-05-24T10:54:01.299Z,13.1
2023-05-24T11:00:01.082Z,13.1
2023-05-24T11:03:00.881Z,13.1
2023-05-24T11:06:01.266Z,13.1
2023-05-24T11:09:01.474Z,13.1
2023-05-24T11:12:01.440Z,13.1
2023-05-24T11:15:01.416Z,13.1
2023-05-24T11:18:01.471Z,13.6
2023-05-24T11:21:02.210Z,13.6
2023-05-24T11:24:01.367Z,13.6
2023-05-24T11:27:01.308Z,13.6
2023-05-24T11:30:01.098Z,13.6
2023-05-24T11:33:01.124Z,13.6
2023-05-24T11:36:01.087Z,13.6
2023-05-24T11:39:01.064Z,13.6
2023-05-24T11:42:01.081Z,14.1
2023-05-24T11:45:00.990Z,14.1
2023-05-24T11:48:01.273Z,14.1
2023-05-24T11:51:01.148Z,14.1
2023-05-24T11:54:01.282Z,13.8
2023-05-24T11:57:01.069Z,13.8
2023-05-24T12:00:01.144Z,13.8
2023-05-24T12:03:01.129Z,13.8
2023-05-24T12:06:01.094Z,13.8
2023-05-24T12:09:01.079Z,13.8
2023-05-24T12:12:01.071Z,13.8
2023-05-24T12:15:00.975Z,13.8
2023-05-24T12:18:01.145Z,13.8
2023-05-24T12:21:01.070Z,13.8
2023-05-24T12:24:01.044Z,13.8
2023-05-24T12:27:01.068Z,13.8
2023-05-24T12:30:01.104Z,13.8
2023-05-24T12:33:01.153Z,13.8
2023-05-24T12:36:01.101Z,13.8
2023-05-24T12:39:01.067Z,13.8
2023-05-24T12:42:00.992Z,13.8
2023-05-24T12:45:01.065Z,13.8
2023-05-24T12:48:01.162Z,13.8
2023-05-24T12:51:01.049Z,13.8
2023-05-24T12:54:01.081Z,13.8
2023-05-24T12:57:01.187Z,13.8
2023-05-24T13:00:01.345Z,13.8
2023-05-24T13:03:01.128Z,13.8
2023-05-24T13:06:01.108Z,14.1
2023-05-24T13:09:00.988Z,14.1
2023-05-24T13:12:01.073Z,14.1
2023-05-24T13:15:01.085Z,14.1
2023-05-24T13:18:01.180Z,14.1
2023-05-24T13:21:01.015Z,14.1
2023-05-24T13:24:01.136Z,14.1
2023-05-24T13:27:01.073Z,14.1
2023-05-24T13:30:02.079Z,14.1
2023-05-24T13:33:01.264Z,14.1
2023-05-24T13:36:01.018Z,14.1
2023-05-24T13:39:15.921Z,14.1
2023-05-24T13:42:01.367Z,14.1
2023-05-24T13:45:01.063Z,14.1
2023-05-24T13:48:01.179Z,14.1
2023-05-24T13:51:01.120Z,14.1
2023-05-24T13:54:01.085Z,14.1
2023-05-24T13:57:01.035Z,14.1
2023-05-24T14:00:01.148Z,14.1
2023-05-24T14:03:01.172Z,14.1
2023-05-24T14:06:01.121Z,14.1
2023-05-24T14:09:01.060Z,14.6
2023-05-24T14:12:01.120Z,14.6
2023-05-24T14:15:03.935Z,14.6
2023-05-24T14:18:01.210Z,14.6
2023-05-24T14:21:01.153Z,14.6
2023-05-24T14:24:01.164Z,14.6
2023-05-24T14:27:01.273Z,14.6
2023-05-24T14:30:01.187Z,14.6
2023-05-24T14:33:01.247Z,14.6
2023-05-24T14:36:01.143Z,14.6
2023-05-24T14:39:01.043Z,14.6
2023-05-24T14:42:01.118Z,14.6
2023-05-24T14:45:01.144Z,14.6
2023-05-24T14:48:01.517Z,14.6
2023-05-24T14:51:01.094Z,14.6
2023-05-24T14:54:01.120Z,14.6
2023-05-24T14:57:01.095Z,14.6
2023-05-24T15:00:01.108Z,15.1
2023-05-24T15:03:01.248Z,15.1
2023-05-24T15:06:01.197Z,15.1
2023-05-24T15:09:01.080Z,15.1
2023-05-24T15:12:01.027Z,15.1
2023-05-24T15:15:01.051Z,15.1
2023-05-24T15:18:01.222Z,15.1
2023-05-24T15:21:01.145Z,15.1
2023-05-24T15:24:01.154Z,15.1
2023-05-24T15:27:01.097Z,15.1
2023-05-24T15:30:01.272Z,15.1
2023-05-24T15:33:01.139Z,15.1
2023-05-24T15:36:01.081Z,15.1
2023-05-24T15:39:01.148Z,15.1
2023-05-24T15:42:00.985Z,15.1
2023-05-24T15:45:01.064Z,15.1
2023-05-24T15:48:01.198Z,15.1
2023-05-24T15:54:01.034Z,15.1
2023-05-24T15:57:01.062Z,15.1
2023-05-24T16:00:01.103Z,15.1
2023-05-24T16:03:01.100Z,15.1
2023-05-24T16:06:01.239Z,15.1
2023-05-24T16:09:01.108Z,15.4
2023-05-24T16:12:01.496Z,15.4
2023-05-24T16:15:01.100Z,15.4
2023-05-24T16:18:01.175Z,15.4
2023-05-24T16:21:01.032Z,15.4
2023-05-24T16:24:02.285Z,15.4
2023-05-24T16:27:01.030Z,15.4
2023-05-24T16:30:01.058Z,15.4
2023-05-24T16:33:01.167Z,15.4
2023-05-24T16:36:03.530Z,15.4
2023-05-24T16:39:01.175Z,15.4
2023-05-24T16:42:01.919Z,15.4
2023-05-24T16:45:01.245Z,15.4
2023-05-24T16:48:01.156Z,14.9
2023-05-24T16:51:01.066Z,14.9
2023-05-24T16:54:01.032Z,14.9
2023-05-24T16:57:01.085Z,14.9
2023-05-24T17:00:01.224Z,14.9
2023-05-24T17:03:01.180Z,14.9
2023-05-24T17:06:04.219Z,14.9
2023-05-24T17:09:01.055Z,14.9
2023-05-24T17:12:01.186Z,14.9
2023-05-24T17:15:00.996Z,14.9
2023-05-24T17:18:01.176Z,14.9
2023-05-24T17:21:01.017Z,14.9
2023-05-24T17:24:01.028Z,14.9
2023-05-24T17:27:00.964Z,14.9
2023-05-24T17:30:01.246Z,14.9
2023-05-24T17:33:01.172Z,14.9
2023-05-24T17:36:01.103Z,14.9
2023-05-24T17:39:01.115Z,14.9
2023-05-24T17:42:01.028Z,14.9
2023-05-24T17:45:01.214Z,14.9
2023-05-24T17:48:01.239Z,14.9
2023-05-24T17:51:01.176Z,14.9
2023-05-24T17:54:01.058Z,14.9
2023-05-24T17:57:01.022Z,14.9
2023-05-24T18:00:01.078Z,14.9
2023-05-24T18:03:01.123Z,14.9
2023-05-24T18:06:01.091Z,14.8
2023-05-24T18:09:00.995Z,14.8
2023-05-24T18:12:01.103Z,14.8
2023-05-24T18:15:01.056Z,14.8
2023-05-24T18:18:01.318Z,14.8
2023-05-24T18:21:01.054Z,14.8
2023-05-24T18:24:01.105Z,14.8
2023-05-24T18:27:00.975Z,14.8
2023-05-24T18:30:01.085Z,14.8
2023-05-24T18:36:01.025Z,14.8
2023-05-24T18:39:01.159Z,14.8
2023-05-24T18:42:01.025Z,14.8
2023-05-24T18:45:01.018Z,14.8
2023-05-24T18:48:01.112Z,14.8
2023-05-24T18:51:01.106Z,14.8
2023-05-24T18:54:01.125Z,14.8
2023-05-24T18:57:01.159Z,14.2
2023-05-24T19:00:01.115Z,14.2
2023-05-24T19:03:01.134Z,14.2
2023-05-24T19:06:01.085Z,14.2
2023-05-24T19:09:01.057Z,14.2
2023-05-24T19:12:00.999Z,14.2
2023-05-24T19:15:01.027Z,14.2
2023-05-24T19:18:01.074Z,14.2
2023-05-24T19:21:01.099Z,14.2
2023-05-24T19:24:01.054Z,14.2
2023-05-24T19:27:01.073Z,13.9
2023-05-24T19:30:01.073Z,13.9
2023-05-24T19:33:01.112Z,13.9
2023-05-24T19:36:00.975Z,13.9
2023-05-24T19:39:01.044Z,13.9
2023-05-24T19:42:01.052Z,13.9
2023-05-24T19:45:01.043Z,13.9
2023-05-24T19:48:01.186Z,13.9
2023-05-24T19:51:01.005Z,13.9
2023-05-24T19:54:01.000Z,13.6
2023-05-24T19:57:00.932Z,13.6
2023-05-24T20:00:01.051Z,13.6
2023-05-24T20:03:01.187Z,13.6
2023-05-24T20:06:00.981Z,13.6
2023-05-24T20:09:00.989Z,13.6
2023-05-24T20:12:00.984Z,13.6
2023-05-24T20:15:01.000Z,13.6
2023-05-24T20:18:01.084Z,13.6
2023-05-24T20:21:00.971Z,13.2
2023-05-24T20:24:01.061Z,13.2
2023-05-24T20:27:01.085Z,13.2
2023-05-24T20:30:01.120Z,13.2
2023-05-24T20:33:01.168Z,13.2
2023-05-24T20:36:01.118Z,13.2
2023-05-24T20:39:00.978Z,13.2
2023-05-24T20:42:01.065Z,13.2
2023-05-24T20:45:01.259Z,13.2
2023-05-24T20:48:01.016Z,13.2
2023-05-24T20:51:00.973Z,13.2
2023-05-24T20:54:00.902Z,13.2
2023-05-24T20:57:01.014Z,13.2
2023-05-24T21:00:01.305Z,13.2
2023-05-24T21:03:01.179Z,13
2023-05-24T21:06:01.016Z,13
2023-05-24T21:09:01.074Z,13
2023-05-24T21:12:01.061Z,13
2023-05-24T21:15:01.015Z,13
2023-05-24T21:18:01.042Z,13
2023-05-24T21:21:00.913Z,13
2023-05-24T21:24:01.086Z,13
2023-05-24T21:27:01.020Z,13
2023-05-24T21:30:01.010Z,13
2023-05-24T21:33:01.028Z,13
2023-05-24T21:36:00.949Z,13
2023-05-24T21:39:01.002Z,13
2023-05-24T21:42:01.626Z,13
2023-05-24T21:45:00.993Z,13
2023-05-24T21:48:01.069Z,12.9
2023-05-24T21:51:00.938Z,12.9
2023-05-24T21:54:00.974Z,12.9
2023-05-24T21:57:00.976Z,12.9
2023-05-24T22:00:01.755Z,12.9
2023-05-24T22:03:01.074Z,12.9
2023-05-24T22:06:01.011Z,12.9
2023-05-24T22:09:00.981Z,12.9
2023-05-24T22:12:01.047Z,12.9
2023-05-24T22:15:01.011Z,12.9
2023-05-24T22:18:01.109Z,12.9
2023-05-24T22:21:00.977Z,12.9
2023-05-24T22:24:01.054Z,12.8
2023-05-24T22:27:01.140Z,12.8
2023-05-24T22:30:01.045Z,12.8
2023-05-24T22:33:01.055Z,12.8
2023-05-24T22:36:01.106Z,12.8
2023-05-24T22:39:00.998Z,12.8
2023-05-24T22:42:00.955Z,12.8
2023-05-24T22:45:01.006Z,12.8
2023-05-24T22:48:01.108Z,12.8
2023-05-24T22:51:01.040Z,12.8
2023-05-24T22:54:01.009Z,12.8
2023-05-24T22:57:01.047Z,12.8
2023-05-24T23:00:01.119Z,12.8
2023-05-24T23:03:01.065Z,12.8
2023-05-24T23:06:01.025Z,12.8
2023-05-24T23:09:01.015Z,12.8
2023-05-24T23:12:00.986Z,12.8
2023-05-24T23:15:00.942Z,12.8
2023-05-24T23:18:01.064Z,12.8
2023-05-24T23:21:01.040Z,12.8
2023-05-24T23:24:00.974Z,12.8
2023-05-24T23:27:00.931Z,12.8
2023-05-24T23:30:00.948Z,12.8
2023-05-24T23:33:01.048Z,12.4
2023-05-24T23:36:00.978Z,12.4
2023-05-24T23:39:01.008Z,12.4
2023-05-24T23:42:01.107Z,12.4
2023-05-24T23:45:01.014Z,12.4
2023-05-24T23:48:01.101Z,12.4
2023-05-24T23:51:00.970Z,12.4
2023-05-24T23:54:01.089Z,12.4
2023-05-24T23:57:01.013Z,12.4
